Time;durP1;ratioP1;P1;durP2;ratioP2;P2;SDS_P1;SDS_P2;PMS_P1;PMS_P2;Temp;Humidity;BMP_temperature;BMP_pressure;BME280_temperature;BME280_humidity;BME280_pressure;Samples;Min_cycle;Max_cycle;Signal;HPM_P1;HPM_P2
2020/12/25 00:00:04;;;;;;;;;;;1.10;99.90;;;;;;5051189;28;19983;-86
2020/12/25 00:02:30;;;;;;;;;;;1.10;99.90;;;;;;5051305;28;20015;-86
2020/12/25 00:04:55;;;;;;;;;;;1.20;99.90;;;;;;5051202;28;19944;-86
2020/12/25 00:07:21;;;;;;;;;;;1.20;99.90;;;;;;5051109;28;20285;-86
2020/12/25 00:09:46;;;;;;;;;;;1.20;99.90;;;;;;5052508;28;19909;-87
2020/12/25 00:12:12;;;;;;;;;;;1.20;99.90;;;;;;5051200;28;19917;-86
2020/12/25 00:14:37;;;;;;;;;;;1.30;99.90;;;;;;5051243;28;19909;-86
2020/12/25 00:17:03;;;;;;;;;;;1.30;99.90;;;;;;5052265;28;20008;-86
2020/12/25 00:19:28;;;;;;;;;;;1.30;99.90;;;;;;5068863;28;20294;-86
2020/12/25 00:21:54;;;;;;;;;;;1.30;99.90;;;;;;5050979;28;19970;-86
2020/12/25 00:24:19;;;;;;;;;;;1.30;99.90;;;;;;5051350;28;19908;-86
2020/12/25 00:26:45;;;;;;;;;;;1.30;99.90;;;;;;5050847;28;19916;-86
2020/12/25 00:29:10;;;;;;;;;;;1.20;99.90;;;;;;5050930;28;20276;-86
2020/12/25 00:31:38;;;;;;;;;;;1.20;99.90;;;;;;5050898;28;19955;-86
2020/12/25 00:34:08;;;;;;;;;;;1.20;99.90;;;;;;5051106;28;19913;-86
2020/12/25 00:36:34;;;;;;;;;;;1.30;99.90;;;;;;5050929;28;19959;-86
2020/12/25 00:39:01;;;;;;;;;;;1.30;99.90;;;;;;5050884;28;19916;-86
2020/12/25 00:41:26;;;;;;;;;;;1.40;99.90;;;;;;5050893;28;19916;-86
2020/12/25 00:43:52;;;;;;;;;;;1.40;99.90;;;;;;5050801;28;19913;-86
2020/12/25 00:46:17;;;;;;;;;;;1.50;99.90;;;;;;5052416;28;19951;-86
2020/12/25 00:48:43;;;;;;;;;;;1.50;99.90;;;;;;5060174;28;19967;-86
2020/12/25 00:51:17;;;;;;;;;;;1.40;99.90;;;;;;5074164;28;19913;-86
2020/12/25 00:53:42;;;;;;;;;;;1.40;99.90;;;;;;5074790;28;19913;-89
2020/12/25 00:56:08;;;;;;;;;;;1.40;99.90;;;;;;5075680;28;19915;-86
2020/12/25 00:58:34;;;;;;;;;;;1.40;99.90;;;;;;5074409;28;19912;-86
2020/12/25 01:00:59;;;;;;;;;;;1.40;99.90;;;;;;5074344;28;19908;-86
2020/12/25 01:03:25;;;;;;;;;;;1.40;99.90;;;;;;5074409;28;20007;-86
2020/12/25 01:05:50;;;;;;;;;;;1.30;99.90;;;;;;5074168;28;19908;-85
2020/12/25 01:08:16;;;;;;;;;;;1.30;99.90;;;;;;5074266;28;20497;-85
2020/12/25 01:10:42;;;;;;;;;;;1.30;99.90;;;;;;5074103;28;20003;-85
2020/12/25 01:13:07;;;;;;;;;;;1.40;99.90;;;;;;5075386;28;19908;-85
2020/12/25 01:15:33;;;;;;;;;;;1.40;99.90;;;;;;5074088;28;19909;-85
2020/12/25 01:17:58;;;;;;;;;;;1.40;99.90;;;;;;5073804;28;20003;-85
2020/12/25 01:20:23;;;;;;;;;;;1.40;99.90;;;;;;5064120;28;19909;-86
2020/12/25 01:22:49;;;;;;;;;;;1.40;99.90;;;;;;5054156;28;19916;-86
2020/12/25 01:25:14;;;;;;;;;;;1.50;99.90;;;;;;5054089;28;20249;-85
2020/12/25 01:27:40;;;;;;;;;;;1.50;99.90;;;;;;5053736;28;19909;-85
2020/12/25 01:30:05;;;;;;;;;;;1.50;99.90;;;;;;5053696;28;19916;-86
2020/12/25 01:32:37;;;;;;;;;;;1.60;99.90;;;;;;5052668;28;20015;-85
2020/12/25 01:35:03;;;;;;;;;;;1.60;99.90;;;;;;5054400;28;19908;-86
2020/12/25 01:37:28;;;;;;;;;;;1.60;99.90;;;;;;5053515;28;20363;-85
2020/12/25 01:39:54;;;;;;;;;;;1.60;99.90;;;;;;5053657;28;19986;-85
2020/12/25 01:42:19;;;;;;;;;;;1.60;99.90;;;;;;5053584;28;19909;-86
2020/12/25 01:44:45;;;;;;;;;;;1.60;99.90;;;;;;5052864;28;19924;-87
2020/12/25 01:47:10;;;;;;;;;;;1.60;99.90;;;;;;5053376;28;19914;-86
2020/12/25 01:49:36;;;;;;;;;;;1.60;99.90;;;;;;5069896;28;20000;-86
2020/12/25 01:52:01;;;;;;;;;;;1.60;99.90;;;;;;5053406;28;19916;-85
2020/12/25 01:54:27;;;;;;;;;;;1.70;99.90;;;;;;5053407;28;19962;-86
2020/12/25 01:56:53;;;;;;;;;;;1.70;99.90;;;;;;5052478;28;19958;-85
2020/12/25 01:59:18;;;;;;;;;;;1.80;99.90;;;;;;5052941;28;19909;-86
2020/12/25 02:01:44;;;;;;;;;;;1.80;99.90;;;;;;5053200;28;19912;-86
2020/12/25 02:04:09;;;;;;;;;;;1.80;99.90;;;;;;5054505;28;19916;-86
2020/12/25 02:06:39;;;;;;;;;;;1.80;99.90;;;;;;5053131;28;19909;-86
2020/12/25 02:09:04;;;;;;;;;;;1.80;99.90;;;;;;5053278;28;19954;-85
2020/12/25 02:11:31;;;;;;;;;;;1.90;99.90;;;;;;5052969;28;20355;-86
2020/12/25 02:13:57;;;;;;;;;;;1.90;99.90;;;;;;5053107;28;19958;-85
2020/12/25 02:16:22;;;;;;;;;;;1.90;99.90;;;;;;5052812;28;20000;-85
2020/12/25 02:18:48;;;;;;;;;;;1.90;99.90;;;;;;5062524;28;19909;-86
2020/12/25 02:21:13;;;;;;;;;;;1.90;99.90;;;;;;5069233;28;19916;-86
2020/12/25 02:23:38;;;;;;;;;;;1.90;99.90;;;;;;5072939;28;19908;-85
2020/12/25 02:26:04;;;;;;;;;;;1.90;99.90;;;;;;5072575;28;20325;-85
2020/12/25 02:28:30;;;;;;;;;;;1.90;99.90;;;;;;5073993;28;19912;-85
2020/12/25 02:30:55;;;;;;;;;;;1.90;99.90;;;;;;5072509;28;20385;-86
2020/12/25 02:33:21;;;;;;;;;;;1.90;99.90;;;;;;5072538;28;19962;-86
2020/12/25 02:35:46;;;;;;;;;;;2.00;99.90;;;;;;5072470;28;19909;-86
2020/12/25 02:38:11;;;;;;;;;;;2.00;99.90;;;;;;5072470;28;19947;-86
2020/12/25 02:40:37;;;;;;;;;;;2.00;99.90;;;;;;5072305;28;19908;-85
2020/12/25 02:43:02;;;;;;;;;;;2.00;99.90;;;;;;5072429;28;19915;-86
2020/12/25 02:45:28;;;;;;;;;;;2.00;99.90;;;;;;5072307;28;19938;-85
2020/12/25 02:47:53;;;;;;;;;;;2.00;99.90;;;;;;5070619;28;19990;-85
2020/12/25 02:50:19;;;;;;;;;;;2.00;99.90;;;;;;5063727;28;19913;-86
2020/12/25 02:52:44;;;;;;;;;;;2.00;99.90;;;;;;5072120;28;19916;-85
2020/12/25 02:55:10;;;;;;;;;;;2.00;99.90;;;;;;5071690;28;19910;-85
2020/12/25 02:57:36;;;;;;;;;;;2.00;99.90;;;;;;5072941;28;19908;-86
2020/12/25 03:00:02;;;;;;;;;;;2.10;99.90;;;;;;5071927;28;19961;-85
2020/12/25 03:02:28;;;;;;;;;;;2.10;99.90;;;;;;5071914;28;19944;-85
2020/12/25 03:04:53;;;;;;;;;;;2.00;99.90;;;;;;5072038;28;19908;-86
2020/12/25 03:07:19;;;;;;;;;;;2.10;99.90;;;;;;5071742;28;19908;-86
2020/12/25 03:09:44;;;;;;;;;;;2.10;99.90;;;;;;5071470;28;20378;-85
2020/12/25 03:12:09;;;;;;;;;;;2.10;99.90;;;;;;5071792;28;19958;-86
2020/12/25 03:14:35;;;;;;;;;;;2.10;99.90;;;;;;5073095;28;19909;-85
2020/12/25 03:17:00;;;;;;;;;;;2.10;99.90;;;;;;5071620;28;19915;-86
2020/12/25 03:19:26;;;;;;;;;;;2.10;99.90;;;;;;5069844;28;20429;-85
2020/12/25 03:21:51;;;;;;;;;;;2.00;99.90;;;;;;5051674;28;19913;-86
2020/12/25 03:24:17;;;;;;;;;;;2.00;99.90;;;;;;5051818;28;19916;-85
2020/12/25 03:26:42;;;;;;;;;;;2.00;99.90;;;;;;5051545;28;19909;-86
2020/12/25 03:29:08;;;;;;;;;;;2.00;99.90;;;;;;5051520;28;19909;-86
2020/12/25 03:31:33;;;;;;;;;;;2.00;99.90;;;;;;5052703;28;19913;-86
2020/12/25 03:33:59;;;;;;;;;;;2.00;99.90;;;;;;5051600;28;19915;-86
2020/12/25 03:36:24;;;;;;;;;;;2.00;99.90;;;;;;5051396;28;19909;-86
2020/12/25 03:38:50;;;;;;;;;;;2.00;99.90;;;;;;5051484;28;20419;-86
2020/12/25 03:41:15;;;;;;;;;;;2.10;99.90;;;;;;5051413;28;19978;-86
2020/12/25 03:43:41;;;;;;;;;;;2.10;99.90;;;;;;5051270;28;19920;-85
2020/12/25 03:46:06;;;;;;;;;;;2.10;99.90;;;;;;5051163;28;19913;-86
2020/12/25 03:48:31;;;;;;;;;;;2.10;99.90;;;;;;5060849;28;20494;-86
2020/12/25 03:50:59;;;;;;;;;;;2.10;99.90;;;;;;5065424;28;19958;-85
2020/12/25 03:53:24;;;;;;;;;;;2.10;99.90;;;;;;5071351;28;19999;-86
2020/12/25 03:55:50;;;;;;;;;;;2.10;99.90;;;;;;5072355;28;19952;-86
2020/12/25 03:58:15;;;;;;;;;;;2.10;99.90;;;;;;5071353;28;19908;-86
2020/12/25 04:00:40;;;;;;;;;;;2.10;99.90;;;;;;5071179;28;19908;-86
2020/12/25 04:03:06;;;;;;;;;;;2.10;99.90;;;;;;5071241;28;19912;-86
2020/12/25 04:05:31;;;;;;;;;;;2.10;99.90;;;;;;5071506;28;19912;-87
2020/12/25 04:07:57;;;;;;;;;;;2.10;99.90;;;;;;5071092;28;19909;-85
2020/12/25 04:10:22;;;;;;;;;;;2.10;99.90;;;;;;5071164;28;19935;-86
2020/12/25 04:12:48;;;;;;;;;;;2.10;99.90;;;;;;5071247;28;20428;-86
2020/12/25 04:15:13;;;;;;;;;;;2.10;99.90;;;;;;5072430;28;19955;-86
2020/12/25 04:17:39;;;;;;;;;;;2.10;99.90;;;;;;5067434;28;19915;-86
2020/12/25 04:20:04;;;;;;;;;;;2.10;99.90;;;;;;5067197;28;19916;-86
2020/12/25 04:22:30;;;;;;;;;;;2.10;99.90;;;;;;5064400;28;20000;-86
2020/12/25 04:24:55;;;;;;;;;;;2.10;99.90;;;;;;5056403;28;19916;-86
2020/12/25 04:27:20;;;;;;;;;;;2.10;99.90;;;;;;5054823;28;19909;-86
2020/12/25 04:29:46;;;;;;;;;;;2.10;99.90;;;;;;5054901;28;19909;-86
2020/12/25 04:32:11;;;;;;;;;;;2.10;99.90;;;;;;5054841;28;19917;-86
2020/12/25 04:34:37;;;;;;;;;;;2.10;99.90;;;;;;5059379;28;19916;-85
2020/12/25 04:37:03;;;;;;;;;;;2.10;99.90;;;;;;5067699;28;19944;-86
2020/12/25 04:39:28;;;;;;;;;;;2.10;99.90;;;;;;5054844;28;19916;-85
2020/12/25 04:41:57;;;;;;;;;;;2.10;99.90;;;;;;5054703;28;19932;-86
2020/12/25 04:44:22;;;;;;;;;;;2.10;99.90;;;;;;5054478;28;19921;-85
2020/12/25 04:46:51;;;;;;;;;;;2.10;99.90;;;;;;5055853;28;19931;-85
2020/12/25 04:49:18;;;;;;;;;;;2.10;99.90;;;;;;5054613;28;19915;-86
2020/12/25 04:51:43;;;;;;;;;;;2.10;99.90;;;;;;5054443;28;19919;-86
2020/12/25 04:54:09;;;;;;;;;;;2.10;99.90;;;;;;5054545;28;19913;-85
2020/12/25 04:56:34;;;;;;;;;;;2.10;99.90;;;;;;5054324;28;19931;-87
2020/12/25 04:59:00;;;;;;;;;;;2.10;99.90;;;;;;5054413;28;19915;-86
2020/12/25 05:01:26;;;;;;;;;;;2.20;99.90;;;;;;5054225;28;19909;-85
2020/12/25 05:03:52;;;;;;;;;;;2.20;99.90;;;;;;5057140;28;20375;-85
2020/12/25 05:06:18;;;;;;;;;;;2.20;99.90;;;;;;5065699;28;19909;-85
2020/12/25 05:08:48;;;;;;;;;;;2.20;99.90;;;;;;5074330;28;19932;-85
2020/12/25 05:11:14;;;;;;;;;;;2.10;99.90;;;;;;5074105;28;19912;-86
2020/12/25 05:13:43;;;;;;;;;;;2.10;99.90;;;;;;5074135;28;19913;-86
2020/12/25 05:16:09;;;;;;;;;;;2.10;99.90;;;;;;5073911;28;19908;-85
2020/12/25 05:18:34;;;;;;;;;;;2.10;99.90;;;;;;5074070;28;20393;-85
2020/12/25 05:21:08;;;;;;;;;;;2.00;99.90;;;;;;5073915;28;19912;-86
2020/12/25 05:23:34;;;;;;;;;;;2.00;99.90;;;;;;5073973;28;19915;-86
2020/12/25 05:26:00;;;;;;;;;;;2.00;99.90;;;;;;5073833;28;20007;-85
2020/12/25 05:28:29;;;;;;;;;;;2.00;99.90;;;;;;5075056;28;19922;-85
2020/12/25 05:30:58;;;;;;;;;;;2.00;99.90;;;;;;5073768;28;20003;-85
2020/12/25 05:33:24;;;;;;;;;;;2.00;99.90;;;;;;5073529;28;19908;-86
2020/12/25 05:35:51;;;;;;;;;;;2.00;99.90;;;;;;5068250;28;19909;-85
2020/12/25 05:38:17;;;;;;;;;;;2.00;99.90;;;;;;5070603;28;20432;-86
2020/12/25 05:40:43;;;;;;;;;;;2.00;99.90;;;;;;5073621;28;19912;-86
2020/12/25 05:43:08;;;;;;;;;;;2.00;99.90;;;;;;5073611;28;20395;-86
2020/12/25 05:45:38;;;;;;;;;;;2.00;99.90;;;;;;5073350;28;19916;-86
2020/12/25 05:48:05;;;;;;;;;;;2.00;99.90;;;;;;5073540;28;19915;-85
2020/12/25 05:50:32;;;;;;;;;;;2.00;99.90;;;;;;5074245;28;20415;-85
2020/12/25 05:52:57;;;;;;;;;;;1.90;99.90;;;;;;5073425;28;20002;-85
2020/12/25 05:55:23;;;;;;;;;;;1.90;99.90;;;;;;5073341;28;19999;-85
2020/12/25 05:57:50;;;;;;;;;;;1.90;99.90;;;;;;5073166;28;19951;-85
2020/12/25 06:00:16;;;;;;;;;;;1.90;99.90;;;;;;5073209;28;19943;-86
2020/12/25 06:02:43;;;;;;;;;;;1.90;99.90;;;;;;5073254;28;20379;-85
2020/12/25 06:05:10;;;;;;;;;;;2.00;99.90;;;;;;5073130;28;19912;-85
2020/12/25 06:07:36;;;;;;;;;;;2.00;99.90;;;;;;5065890;28;20275;-86
2020/12/25 06:10:02;;;;;;;;;;;2.00;99.90;;;;;;5073013;28;19915;-85
2020/12/25 06:12:36;;;;;;;;;;;2.00;99.90;;;;;;5072953;28;20284;-85
2020/12/25 06:15:02;;;;;;;;;;;2.00;99.90;;;;;;5073513;28;19920;-86
2020/12/25 06:17:28;;;;;;;;;;;2.10;99.90;;;;;;5064078;28;19909;-86
2020/12/25 06:19:58;;;;;;;;;;;2.00;99.90;;;;;;5072767;28;20018;-85
2020/12/25 06:22:30;;;;;;;;;;;2.00;99.90;;;;;;5072862;28;20003;-85
2020/12/25 06:24:57;;;;;;;;;;;2.00;99.90;;;;;;5072823;28;19909;-85
2020/12/25 06:27:25;;;;;;;;;;;2.00;99.90;;;;;;5072522;28;19912;-86
2020/12/25 06:29:52;;;;;;;;;;;1.90;99.90;;;;;;5072521;28;19916;-86
2020/12/25 06:32:18;;;;;;;;;;;1.90;99.90;;;;;;5072656;28;19920;-86
2020/12/25 06:34:45;;;;;;;;;;;1.90;99.90;;;;;;5072443;28;20390;-85
2020/12/25 06:37:13;;;;;;;;;;;1.90;99.90;;;;;;5072468;28;19908;-85
2020/12/25 06:39:42;;;;;;;;;;;1.90;99.90;;;;;;5073751;28;19999;-85
2020/12/25 06:42:09;;;;;;;;;;;1.90;99.90;;;;;;5072421;28;19912;-85
2020/12/25 06:44:35;;;;;;;;;;;1.90;99.90;;;;;;5071727;28;19916;-85
2020/12/25 06:47:02;;;;;;;;;;;1.90;99.90;;;;;;5065827;28;19915;-85
2020/12/25 06:49:33;;;;;;;;;;;1.90;99.90;;;;;;5070944;28;19951;-85
2020/12/25 06:51:58;;;;;;;;;;;1.90;99.90;;;;;;5073426;28;19913;-85
2020/12/25 06:54:26;;;;;;;;;;;1.80;99.90;;;;;;5072295;28;20421;-86
2020/12/25 06:56:54;;;;;;;;;;;1.70;99.90;;;;;;5073204;28;20275;-86
2020/12/25 06:59:21;;;;;;;;;;;1.70;99.90;;;;;;5073362;28;19915;-85
2020/12/25 07:01:47;;;;;;;;;;;1.70;99.90;;;;;;5072072;28;19934;-86
2020/12/25 07:04:26;;;;;;;;;;;1.70;99.90;;;;;;5072097;28;19912;-85
2020/12/25 07:06:53;;;;;;;;;;;1.60;99.90;;;;;;5071858;28;19952;-85
2020/12/25 07:09:19;;;;;;;;;;;1.60;99.90;;;;;;5072002;28;19908;-85
2020/12/25 07:11:48;;;;;;;;;;;1.50;99.90;;;;;;5071828;28;19919;-85
2020/12/25 07:14:13;;;;;;;;;;;1.50;99.90;;;;;;5071945;28;19973;-86
2020/12/25 07:16:39;;;;;;;;;;;1.50;99.90;;;;;;5071571;28;20363;-85
2020/12/25 07:19:05;;;;;;;;;;;1.60;99.90;;;;;;5056366;28;19915;-86
2020/12/25 07:21:30;;;;;;;;;;;1.60;99.90;;;;;;5051749;28;19909;-86
2020/12/25 07:23:56;;;;;;;;;;;1.70;99.90;;;;;;5051731;28;20069;-85
2020/12/25 07:26:21;;;;;;;;;;;1.70;99.90;;;;;;5052709;28;19912;-86
2020/12/25 07:28:47;;;;;;;;;;;1.70;99.90;;;;;;5051564;28;19956;-86
2020/12/25 07:31:13;;;;;;;;;;;1.70;99.90;;;;;;5051437;28;19959;-85
2020/12/25 07:33:39;;;;;;;;;;;1.70;99.90;;;;;;5051647;28;19909;-85
2020/12/25 07:36:11;;;;;;;;;;;1.70;99.90;;;;;;5051311;28;19916;-85
2020/12/25 07:38:36;;;;;;;;;;;1.70;99.90;;;;;;5052761;28;19909;-85
2020/12/25 07:41:02;;;;;;;;;;;1.70;99.90;;;;;;5051416;28;19920;-86
2020/12/25 07:43:27;;;;;;;;;;;1.60;99.90;;;;;;5051731;28;19916;-86
2020/12/25 07:45:53;;;;;;;;;;;1.60;99.90;;;;;;5058647;28;19981;-86
2020/12/25 07:48:21;;;;;;;;;;;1.50;99.90;;;;;;5064270;28;19909;-85
2020/12/25 07:50:47;;;;;;;;;;;1.50;99.90;;;;;;5070823;28;19908;-86
2020/12/25 07:53:13;;;;;;;;;;;1.50;99.90;;;;;;5064305;28;20294;-85
2020/12/25 07:55:39;;;;;;;;;;;1.50;99.90;;;;;;5071455;28;20286;-85
2020/12/25 07:58:05;;;;;;;;;;;1.50;99.90;;;;;;5069046;28;19915;-86
2020/12/25 08:00:31;;;;;;;;;;;1.50;99.90;;;;;;5058656;28;19952;-86
2020/12/25 08:02:58;;;;;;;;;;;1.40;99.90;;;;;;5051345;28;19917;-85
2020/12/25 08:05:25;;;;;;;;;;;1.40;99.90;;;;;;5051257;28;20470;-85
2020/12/25 08:07:51;;;;;;;;;;;1.40;99.90;;;;;;5050976;28;19995;-86
2020/12/25 08:10:17;;;;;;;;;;;1.40;99.90;;;;;;5059858;28;20342;-86
2020/12/25 08:12:44;;;;;;;;;;;1.40;99.90;;;;;;5071267;28;20367;-86
2020/12/25 08:15:11;;;;;;;;;;;1.30;99.90;;;;;;5067625;28;19920;-86
2020/12/25 08:17:36;;;;;;;;;;;1.30;99.90;;;;;;5051009;28;20384;-86
2020/12/25 08:20:03;;;;;;;;;;;1.30;99.90;;;;;;5052772;28;19909;-86
2020/12/25 08:22:29;;;;;;;;;;;1.30;99.90;;;;;;5063915;28;20380;-85
2020/12/25 08:24:54;;;;;;;;;;;1.30;99.90;;;;;;5070962;28;20019;-86
2020/12/25 08:27:20;;;;;;;;;;;1.30;99.90;;;;;;5071943;28;19913;-86
2020/12/25 08:29:48;;;;;;;;;;;1.30;99.90;;;;;;5071025;28;19999;-86
2020/12/25 08:32:13;;;;;;;;;;;1.30;99.90;;;;;;5072289;28;19913;-85
2020/12/25 08:34:39;;;;;;;;;;;1.30;99.90;;;;;;5071058;28;20010;-85
2020/12/25 08:37:07;;;;;;;;;;;1.30;99.90;;;;;;5070867;28;19908;-86
2020/12/25 08:39:33;;;;;;;;;;;1.30;99.90;;;;;;5070836;28;19912;-85
2020/12/25 08:41:59;;;;;;;;;;;1.30;99.90;;;;;;5070928;28;20003;-86
2020/12/25 08:44:24;;;;;;;;;;;1.30;99.90;;;;;;5072238;28;20117;-86
2020/12/25 08:46:50;;;;;;;;;;;1.30;99.90;;;;;;5070614;28;20379;-86
2020/12/25 08:49:25;;;;;;;;;;;1.30;99.90;;;;;;5070879;28;20355;-86
2020/12/25 08:51:51;;;;;;;;;;;1.30;99.90;;;;;;5059150;28;19912;-86
2020/12/25 08:54:23;;;;;;;;;;;1.30;99.90;;;;;;5070761;28;19962;-85
2020/12/25 08:56:48;;;;;;;;;;;1.30;99.90;;;;;;5070646;28;19908;-86
2020/12/25 08:59:16;;;;;;;;;;;1.40;99.90;;;;;;5070780;28;19908;-86
2020/12/25 09:01:42;;;;;;;;;;;1.40;99.90;;;;;;5070663;28;19915;-86
2020/12/25 09:04:18;;;;;;;;;;;1.40;99.90;;;;;;5071944;28;19909;-86
2020/12/25 09:06:44;;;;;;;;;;;1.40;99.90;;;;;;5071292;28;19908;-86
2020/12/25 09:09:10;;;;;;;;;;;1.40;99.90;;;;;;5075698;28;20330;-86
2020/12/25 09:11:35;;;;;;;;;;;1.50;99.90;;;;;;5074223;28;19912;-86
2020/12/25 09:14:01;;;;;;;;;;;1.50;99.90;;;;;;5075023;28;19916;-85
2020/12/25 09:16:26;;;;;;;;;;;1.60;99.90;;;;;;5073855;28;19932;-87
2020/12/25 09:18:52;;;;;;;;;;;1.60;99.90;;;;;;5074075;28;20053;-86
2020/12/25 09:21:18;;;;;;;;;;;1.70;99.90;;;;;;5073275;28;19908;-86
2020/12/25 09:23:44;;;;;;;;;;;1.70;99.90;;;;;;5066326;28;19909;-86
2020/12/25 09:26:10;;;;;;;;;;;1.70;99.90;;;;;;5073076;28;19908;-84
2020/12/25 09:28:36;;;;;;;;;;;1.70;99.90;;;;;;5067382;28;19916;-84
2020/12/25 09:31:03;;;;;;;;;;;1.80;99.90;;;;;;5073568;28;19909;-84
2020/12/25 09:33:29;;;;;;;;;;;1.80;99.90;;;;;;5073734;28;20368;-84
2020/12/25 09:35:54;;;;;;;;;;;1.80;99.90;;;;;;5073721;28;19948;-84
2020/12/25 09:38:19;;;;;;;;;;;1.80;99.90;;;;;;5073717;28;20309;-84
2020/12/25 09:40:49;;;;;;;;;;;1.80;99.90;;;;;;5073744;28;19955;-84
2020/12/25 09:43:14;;;;;;;;;;;1.80;99.90;;;;;;5073587;28;19912;-85
2020/12/25 09:45:40;;;;;;;;;;;1.80;99.90;;;;;;5073435;28;19917;-86
2020/12/25 09:48:05;;;;;;;;;;;1.80;99.90;;;;;;5073695;28;19966;-86
2020/12/25 09:50:31;;;;;;;;;;;1.80;99.90;;;;;;5073472;28;19909;-84
2020/12/25 09:52:56;;;;;;;;;;;1.80;99.90;;;;;;5074659;28;20015;-85
2020/12/25 09:55:22;;;;;;;;;;;1.80;99.90;;;;;;5073300;28;19916;-86
2020/12/25 09:57:47;;;;;;;;;;;1.80;99.90;;;;;;5064775;28;19974;-85
2020/12/25 10:00:13;;;;;;;;;;;1.90;99.90;;;;;;5074538;28;20448;-85
2020/12/25 10:02:39;;;;;;;;;;;1.90;99.90;;;;;;5073414;28;19924;-84
2020/12/25 10:05:06;;;;;;;;;;;1.90;99.90;;;;;;5073227;28;19912;-84
2020/12/25 10:07:31;;;;;;;;;;;1.90;99.90;;;;;;5072866;28;19909;-86
2020/12/25 10:09:57;;;;;;;;;;;1.90;99.90;;;;;;5074438;28;19909;-86
2020/12/25 10:12:22;;;;;;;;;;;1.90;99.90;;;;;;5073125;28;19919;-86
2020/12/25 10:14:48;;;;;;;;;;;1.90;99.90;;;;;;5064597;28;20317;-84
2020/12/25 10:17:13;;;;;;;;;;;1.90;99.90;;;;;;5072745;28;19909;-82
2020/12/25 10:19:39;;;;;;;;;;;1.90;99.90;;;;;;5071802;28;20290;-84
2020/12/25 10:22:04;;;;;;;;;;;1.90;99.90;;;;;;5072670;28;19909;-84
2020/12/25 10:24:30;;;;;;;;;;;1.90;99.90;;;;;;5072862;28;19912;-85
2020/12/25 10:26:55;;;;;;;;;;;1.90;99.90;;;;;;5073869;28;20286;-85
2020/12/25 10:29:21;;;;;;;;;;;1.90;99.90;;;;;;5054777;28;20008;-84
2020/12/25 10:31:50;;;;;;;;;;;1.90;99.90;;;;;;5052460;28;20269;-84
2020/12/25 10:34:15;;;;;;;;;;;1.90;99.90;;;;;;5053922;28;19962;-85
2020/12/25 10:36:41;;;;;;;;;;;1.90;99.90;;;;;;5052406;28;19995;-84
2020/12/25 10:39:07;;;;;;;;;;;1.90;99.90;;;;;;5052519;28;19912;-84
2020/12/25 10:41:32;;;;;;;;;;;1.90;99.90;;;;;;5052474;28;20363;-84
2020/12/25 10:43:58;;;;;;;;;;;2.00;99.90;;;;;;5066623;28;19912;-85
2020/12/25 10:46:24;;;;;;;;;;;2.00;99.90;;;;;;5054188;28;19943;-85
2020/12/25 10:48:49;;;;;;;;;;;2.10;99.90;;;;;;5052406;28;19909;-85
2020/12/25 10:51:14;;;;;;;;;;;2.10;99.90;;;;;;5052039;28;19912;-85
2020/12/25 10:53:41;;;;;;;;;;;2.10;99.90;;;;;;5052167;28;20414;-84
2020/12/25 10:56:07;;;;;;;;;;;2.20;99.90;;;;;;5051315;28;20000;-85
2020/12/25 10:58:32;;;;;;;;;;;2.20;99.90;;;;;;5051845;28;19963;-85
2020/12/25 11:00:57;;;;;;;;;;;2.10;99.90;;;;;;5063892;28;19912;-85
2020/12/25 11:03:23;;;;;;;;;;;2.10;99.90;;;;;;5063772;28;20000;-85
2020/12/25 11:05:48;;;;;;;;;;;2.10;99.90;;;;;;5072027;28;19970;-85
2020/12/25 11:08:14;;;;;;;;;;;2.10;99.90;;;;;;5073254;28;19991;-85
2020/12/25 11:10:44;;;;;;;;;;;2.00;99.90;;;;;;5073286;28;19908;-85
2020/12/25 11:13:10;;;;;;;;;;;2.10;99.90;;;;;;5071850;28;20444;-85
2020/12/25 11:15:35;;;;;;;;;;;2.10;99.90;;;;;;5071796;28;19909;-85
2020/12/25 11:18:00;;;;;;;;;;;2.10;99.90;;;;;;5071791;28;20375;-84
2020/12/25 11:20:26;;;;;;;;;;;2.20;99.90;;;;;;5071752;28;20272;-85
2020/12/25 11:22:51;;;;;;;;;;;2.20;99.90;;;;;;5072121;28;19913;-86
2020/12/25 11:25:17;;;;;;;;;;;2.20;99.90;;;;;;5071528;28;19912;-85
2020/12/25 11:27:42;;;;;;;;;;;2.20;99.90;;;;;;5072970;28;19913;-85
2020/12/25 11:30:08;;;;;;;;;;;2.10;99.90;;;;;;5071441;28;20337;-85
2020/12/25 11:32:33;;;;;;;;;;;2.10;99.90;;;;;;5063055;28;19920;-84
2020/12/25 11:34:59;;;;;;;;;;;2.20;99.90;;;;;;5071560;28;19940;-85
2020/12/25 11:37:24;;;;;;;;;;;2.20;99.90;;;;;;5072794;28;20359;-85
2020/12/25 11:39:50;;;;;;;;;;;2.30;99.90;;;;;;5071497;28;19913;-85
2020/12/25 11:42:16;;;;;;;;;;;2.30;99.90;;;;;;5071357;28;19915;-85
2020/12/25 11:44:41;;;;;;;;;;;2.30;99.90;;;;;;5071443;28;20476;-85
2020/12/25 11:47:06;;;;;;;;;;;2.30;99.90;;;;;;5069589;28;19915;-85
2020/12/25 11:49:32;;;;;;;;;;;2.30;99.90;;;;;;5054041;28;20268;-85
2020/12/25 11:51:57;;;;;;;;;;;2.30;99.90;;;;;;5071178;28;19916;-85
2020/12/25 11:54:23;;;;;;;;;;;2.30;99.90;;;;;;5071304;28;19963;-85
2020/12/25 11:56:50;;;;;;;;;;;2.20;99.90;;;;;;5072555;28;19908;-85
2020/12/25 11:59:16;;;;;;;;;;;2.10;99.90;;;;;;5071579;28;20007;-85
2020/12/25 12:01:41;;;;;;;;;;;2.10;99.90;;;;;;5071270;28;20149;-85
2020/12/25 12:04:07;;;;;;;;;;;2.20;99.90;;;;;;5071361;28;19927;-85
2020/12/25 12:06:32;;;;;;;;;;;2.20;99.90;;;;;;5071025;28;20073;-85
2020/12/25 12:08:58;;;;;;;;;;;2.20;99.90;;;;;;5071130;28;20454;-85
2020/12/25 12:11:23;;;;;;;;;;;2.20;99.90;;;;;;5071393;28;19918;-84
2020/12/25 12:13:49;;;;;;;;;;;2.10;99.90;;;;;;5071198;28;19920;-85
2020/12/25 12:16:15;;;;;;;;;;;2.10;99.90;;;;;;5071000;28;20282;-84
2020/12/25 12:18:41;;;;;;;;;;;2.10;99.90;;;;;;5072259;28;19962;-85
2020/12/25 12:21:09;;;;;;;;;;;2.00;99.90;;;;;;5064511;28;19923;-85
2020/12/25 12:23:35;;;;;;;;;;;2.00;99.90;;;;;;5062822;28;19948;-84
2020/12/25 12:26:01;;;;;;;;;;;1.90;99.90;;;;;;5070839;28;20378;-85
2020/12/25 12:28:26;;;;;;;;;;;1.90;99.90;;;;;;5071020;28;19915;-84
2020/12/25 12:30:51;;;;;;;;;;;1.90;99.90;;;;;;5058744;28;19916;-86
2020/12/25 12:33:17;;;;;;;;;;;1.90;99.90;;;;;;5051190;28;19920;-84
2020/12/25 12:35:42;;;;;;;;;;;1.90;99.90;;;;;;5063554;28;19915;-83
2020/12/25 12:38:08;;;;;;;;;;;2.00;99.90;;;;;;5070678;28;19951;-84
2020/12/25 12:40:33;;;;;;;;;;;2.10;99.90;;;;;;5070696;28;19909;-84
2020/12/25 12:42:59;;;;;;;;;;;2.20;99.90;;;;;;5073730;28;19908;-84
2020/12/25 12:45:24;;;;;;;;;;;2.30;99.90;;;;;;5074565;28;20379;-85
2020/12/25 12:47:50;;;;;;;;;;;2.40;99.90;;;;;;5074137;28;19908;-84
2020/12/25 12:50:15;;;;;;;;;;;2.50;99.90;;;;;;5074473;28;20481;-84
2020/12/25 12:52:41;;;;;;;;;;;2.50;99.90;;;;;;5074471;28;19913;-84
2020/12/25 12:55:06;;;;;;;;;;;2.50;99.90;;;;;;5075735;28;19952;-85
2020/12/25 12:57:32;;;;;;;;;;;2.50;99.90;;;;;;5074312;28;20379;-84
2020/12/25 12:59:57;;;;;;;;;;;2.40;99.90;;;;;;5075558;28;19962;-84
2020/12/25 13:02:23;;;;;;;;;;;2.30;99.90;;;;;;5074379;28;19915;-84
2020/12/25 13:04:48;;;;;;;;;;;2.20;99.90;;;;;;5069406;28;19955;-85
2020/12/25 13:07:14;;;;;;;;;;;2.10;99.90;;;;;;5070668;28;19908;-84
2020/12/25 13:09:40;;;;;;;;;;;2.10;99.90;;;;;;5074394;28;19909;-84
2020/12/25 13:12:05;;;;;;;;;;;2.10;99.90;;;;;;5075542;28;19967;-84
2020/12/25 13:14:31;;;;;;;;;;;2.10;99.90;;;;;;5074223;28;19915;-84
2020/12/25 13:16:56;;;;;;;;;;;2.10;99.90;;;;;;5073935;28;19908;-84
2020/12/25 13:19:22;;;;;;;;;;;2.10;99.90;;;;;;5074014;28;20310;-84
2020/12/25 13:21:47;;;;;;;;;;;2.00;99.90;;;;;;5074019;28;20302;-85
2020/12/25 13:24:13;;;;;;;;;;;2.00;99.90;;;;;;5075259;28;19959;-84
2020/12/25 13:26:38;;;;;;;;;;;1.90;99.90;;;;;;5073893;28;19908;-85
2020/12/25 13:29:04;;;;;;;;;;;2.00;99.90;;;;;;5075271;28;19908;-84
2020/12/25 13:31:30;;;;;;;;;;;2.00;99.90;;;;;;5073162;28;19935;-84
2020/12/25 13:33:56;;;;;;;;;;;2.00;99.90;;;;;;5062364;28;19915;-83
2020/12/25 13:36:22;;;;;;;;;;;2.00;99.90;;;;;;5053649;28;19908;-84
2020/12/25 13:38:48;;;;;;;;;;;2.00;99.90;;;;;;5053881;28;19909;-85
2020/12/25 13:41:14;;;;;;;;;;;2.10;99.90;;;;;;5053840;28;19916;-84
2020/12/25 13:43:40;;;;;;;;;;;2.10;99.90;;;;;;5054672;28;19912;-84
2020/12/25 13:46:09;;;;;;;;;;;2.20;99.90;;;;;;5055274;28;20525;-84
2020/12/25 13:48:34;;;;;;;;;;;2.20;99.90;;;;;;5053504;28;19963;-84
2020/12/25 13:51:00;;;;;;;;;;;2.20;99.90;;;;;;5053422;28;19949;-84
2020/12/25 13:53:25;;;;;;;;;;;2.20;99.90;;;;;;5053502;28;19909;-84
2020/12/25 13:55:50;;;;;;;;;;;2.10;99.90;;;;;;5053517;28;19954;-84
2020/12/25 13:58:16;;;;;;;;;;;2.10;99.90;;;;;;5054860;28;19944;-85
2020/12/25 14:00:41;;;;;;;;;;;2.10;99.90;;;;;;5053361;28;19916;-84
2020/12/25 14:03:07;;;;;;;;;;;2.10;99.90;;;;;;5066984;28;19916;-84
2020/12/25 14:05:32;;;;;;;;;;;2.00;99.90;;;;;;5064896;28;20407;-85
2020/12/25 14:07:58;;;;;;;;;;;2.00;99.90;;;;;;5073051;28;19930;-84
2020/12/25 14:10:23;;;;;;;;;;;2.00;99.90;;;;;;5071199;28;20283;-84
2020/12/25 14:12:49;;;;;;;;;;;1.90;99.90;;;;;;5066356;28;19949;-84
2020/12/25 14:15:14;;;;;;;;;;;1.90;99.90;;;;;;5072957;28;19930;-85
2020/12/25 14:17:40;;;;;;;;;;;1.80;99.90;;;;;;5072790;28;19909;-84
2020/12/25 14:20:06;;;;;;;;;;;1.70;99.90;;;;;;5074356;28;19908;-84
2020/12/25 14:22:32;;;;;;;;;;;1.60;99.90;;;;;;5074204;28;20324;-83